sensor_id;sensor_type;location;lat;lon;timestamp;P1;durP1;ratioP1;P2;durP2;ratioP2
58260;SDS011;44058;52.898;6.502;2022-11-20T00:00:49;16.27;;;14.67;;
58260;SDS011;44058;52.898;6.502;2022-11-20T00:03:15;16.13;;;14.63;;
58260;SDS011;44058;52.898;6.502;2022-11-20T00:05:43;14.10;;;8.93;;
58260;SDS011;44058;52.898;6.502;2022-11-20T00:08:09;13.87;;;7.87;;
58260;SDS011;44058;52.898;6.502;2022-11-20T00:10:36;16.57;;;14.90;;
58260;SDS011;44058;52.898;6.502;2022-11-20T00:13:02;18.73;;;16.83;;
58260;SDS011;44058;52.898;6.502;2022-11-20T00:15:29;18.37;;;10.63;;
58260;SDS011;44058;52.898;6.502;2022-11-20T00:17:55;23.23;;;12.03;;
58260;SDS011;44058;52.898;6.502;2022-11-20T00:20:21;21.30;;;12.60;;
58260;SDS011;44058;52.898;6.502;2022-11-20T00:22:47;21.57;;;18.53;;
58260;SDS011;44058;52.898;6.502;2022-11-20T00:25:13;15.70;;;10.37;;
58260;SDS011;44058;52.898;6.502;2022-11-20T00:27:39;15.60;;;10.23;;
58260;SDS011;44058;52.898;6.502;2022-11-20T00:30:05;24.50;;;20.23;;
58260;SDS011;44058;52.898;6.502;2022-11-20T00:32:32;15.43;;;9.53;;
58260;SDS011;44058;52.898;6.502;2022-11-20T00:34:58;15.93;;;14.43;;
58260;SDS011;44058;52.898;6.502;2022-11-20T00:37:23;17.70;;;11.80;;
58260;SDS011;44058;52.898;6.502;2022-11-20T00:39:49;25.90;;;20.67;;
58260;SDS011;44058;52.898;6.502;2022-11-20T00:42:15;25.27;;;20.70;;
58260;SDS011;44058;52.898;6.502;2022-11-20T00:44:41;23.83;;;13.73;;
58260;SDS011;44058;52.898;6.502;2022-11-20T00:47:06;20.13;;;17.67;;
58260;SDS011;44058;52.898;6.502;2022-11-20T00:49:33;16.53;;;10.37;;
58260;SDS011;44058;52.898;6.502;2022-11-20T00:51:59;19.03;;;10.40;;
58260;SDS011;44058;52.898;6.502;2022-11-20T00:54:25;21.70;;;12.00;;
58260;SDS011;44058;52.898;6.502;2022-11-20T00:56:54;18.50;;;16.57;;
58260;SDS011;44058;52.898;6.502;2022-11-20T01:01:46;17.63;;;15.83;;
58260;SDS011;44058;52.898;6.502;2022-11-20T01:04:12;15.63;;;9.77;;
58260;SDS011;44058;52.898;6.502;2022-11-20T01:06:38;12.33;;;8.73;;
58260;SDS011;44058;52.898;6.502;2022-11-20T01:09:05;11.57;;;8.33;;
58260;SDS011;44058;52.898;6.502;2022-11-20T01:11:37;16.43;;;14.93;;
58260;SDS011;44058;52.898;6.502;2022-11-20T01:14:07;12.50;;;8.10;;
58260;SDS011;44058;52.898;6.502;2022-11-20T01:19:04;12.57;;;8.43;;
58260;SDS011;44058;52.898;6.502;2022-11-20T01:21:33;13.57;;;12.38;;
58260;SDS011;44058;52.898;6.502;2022-11-20T01:24:02;13.57;;;12.27;;
58260;SDS011;44058;52.898;6.502;2022-11-20T01:26:31;14.40;;;13.00;;
58260;SDS011;44058;52.898;6.502;2022-11-20T01:28:58;13.13;;;11.88;;
58260;SDS011;44058;52.898;6.502;2022-11-20T01:31:26;11.27;;;7.37;;
58260;SDS011;44058;52.898;6.502;2022-11-20T01:33:55;14.65;;;13.30;;
58260;SDS011;44058;52.898;6.502;2022-11-20T01:36:23;14.27;;;12.87;;
58260;SDS011;44058;52.898;6.502;2022-11-20T01:38:53;14.73;;;13.33;;
58260;SDS011;44058;52.898;6.502;2022-11-20T01:41:20;14.30;;;12.80;;
58260;SDS011;44058;52.898;6.502;2022-11-20T01:44:05;16.13;;;10.13;;
58260;SDS011;44058;52.898;6.502;2022-11-20T01:46:32;13.97;;;9.57;;
58260;SDS011;44058;52.898;6.502;2022-11-20T01:49:02;16.77;;;15.17;;
58260;SDS011;44058;52.898;6.502;2022-11-20T01:51:35;15.37;;;13.93;;
58260;SDS011;44058;52.898;6.502;2022-11-20T01:54:09;14.47;;;9.60;;
58260;SDS011;44058;52.898;6.502;2022-11-20T01:56:42;15.27;;;13.80;;
58260;SDS011;44058;52.898;6.502;2022-11-20T01:59:10;15.48;;;13.98;;
58260;SDS011;44058;52.898;6.502;2022-11-20T02:01:40;13.67;;;10.23;;
58260;SDS011;44058;52.898;6.502;2022-11-20T02:04:07;15.97;;;9.80;;
58260;SDS011;44058;52.898;6.502;2022-11-20T02:06:36;16.30;;;14.67;;
58260;SDS011;44058;52.898;6.502;2022-11-20T02:09:08;19.10;;;10.73;;
58260;SDS011;44058;52.898;6.502;2022-11-20T02:11:33;13.57;;;9.83;;
58260;SDS011;44058;52.898;6.502;2022-11-20T02:13:59;12.97;;;9.43;;
58260;SDS011;44058;52.898;6.502;2022-11-20T02:16:26;16.27;;;14.60;;
58260;SDS011;44058;52.898;6.502;2022-11-20T02:18:56;15.53;;;14.03;;
58260;SDS011;44058;52.898;6.502;2022-11-20T02:21:40;13.83;;;10.00;;
58260;SDS011;44058;52.898;6.502;2022-11-20T02:24:15;14.48;;;13.07;;
58260;SDS011;44058;52.898;6.502;2022-11-20T02:26:44;14.10;;;9.50;;
58260;SDS011;44058;52.898;6.502;2022-11-20T02:29:15;12.67;;;9.83;;
58260;SDS011;44058;52.898;6.502;2022-11-20T02:31:44;16.90;;;15.23;;
58260;SDS011;44058;52.898;6.502;2022-11-20T02:34:10;16.17;;;14.53;;
58260;SDS011;44058;52.898;6.502;2022-11-20T02:36:37;13.40;;;9.40;;
58260;SDS011;44058;52.898;6.502;2022-11-20T02:39:05;15.77;;;14.27;;
58260;SDS011;44058;52.898;6.502;2022-11-20T02:41:32;12.00;;;9.40;;
58260;SDS011;44058;52.898;6.502;2022-11-20T02:44:02;16.30;;;14.63;;
58260;SDS011;44058;52.898;6.502;2022-11-20T02:46:30;13.43;;;9.50;;
58260;SDS011;44058;52.898;6.502;2022-11-20T02:48:56;12.93;;;9.13;;
58260;SDS011;44058;52.898;6.502;2022-11-20T02:51:22;12.83;;;9.67;;
58260;SDS011;44058;52.898;6.502;2022-11-20T02:53:49;14.47;;;9.53;;
58260;SDS011;44058;52.898;6.502;2022-11-20T02:56:16;13.73;;;8.53;;
58260;SDS011;44058;52.898;6.502;2022-11-20T02:58:42;15.77;;;14.17;;
58260;SDS011;44058;52.898;6.502;2022-11-20T03:01:07;11.93;;;9.33;;
58260;SDS011;44058;52.898;6.502;2022-11-20T03:03:33;14.37;;;9.53;;
58260;SDS011;44058;52.898;6.502;2022-11-20T03:05:59;12.57;;;9.27;;
58260;SDS011;44058;52.898;6.502;2022-11-20T03:08:25;12.67;;;9.10;;
58260;SDS011;44058;52.898;6.502;2022-11-20T03:10:51;12.10;;;9.03;;
58260;SDS011;44058;52.898;6.502;2022-11-20T03:13:17;12.07;;;7.70;;
58260;SDS011;44058;52.898;6.502;2022-11-20T03:15:42;14.17;;;9.20;;
58260;SDS011;44058;52.898;6.502;2022-11-20T03:18:08;14.13;;;10.07;;
58260;SDS011;44058;52.898;6.502;2022-11-20T03:20:34;12.50;;;9.00;;
58260;SDS011;44058;52.898;6.502;2022-11-20T03:23:00;15.13;;;13.53;;
58260;SDS011;44058;52.898;6.502;2022-11-20T03:25:26;13.63;;;9.77;;
58260;SDS011;44058;52.898;6.502;2022-11-20T03:27:53;15.40;;;13.90;;
58260;SDS011;44058;52.898;6.502;2022-11-20T03:30:19;13.77;;;9.67;;
58260;SDS011;44058;52.898;6.502;2022-11-20T03:32:45;13.73;;;9.63;;
58260;SDS011;44058;52.898;6.502;2022-11-20T03:35:11;10.27;;;7.50;;
58260;SDS011;44058;52.898;6.502;2022-11-20T03:37:37;11.63;;;8.83;;
58260;SDS011;44058;52.898;6.502;2022-11-20T03:40:03;14.03;;;12.73;;
58260;SDS011;44058;52.898;6.502;2022-11-20T03:42:31;15.40;;;13.93;;
58260;SDS011;44058;52.898;6.502;2022-11-20T03:45:18;12.20;;;9.63;;
58260;SDS011;44058;52.898;6.502;2022-11-20T03:47:45;12.83;;;9.37;;
58260;SDS011;44058;52.898;6.502;2022-11-20T03:50:12;13.90;;;12.63;;
58260;SDS011;44058;52.898;6.502;2022-11-20T03:52:39;12.77;;;9.00;;
58260;SDS011;44058;52.898;6.502;2022-11-20T03:55:06;10.77;;;8.40;;
58260;SDS011;44058;52.898;6.502;2022-11-20T03:57:32;14.13;;;12.73;;
58260;SDS011;44058;52.898;6.502;2022-11-20T03:59:58;13.97;;;12.67;;
58260;SDS011;44058;52.898;6.502;2022-11-20T04:02:24;13.53;;;9.30;;
58260;SDS011;44058;52.898;6.502;2022-11-20T04:04:50;12.93;;;8.27;;
58260;SDS011;44058;52.898;6.502;2022-11-20T04:07:17;14.13;;;12.73;;
58260;SDS011;44058;52.898;6.502;2022-11-20T04:09:43;13.93;;;12.63;;
58260;SDS011;44058;52.898;6.502;2022-11-20T04:12:08;11.70;;;8.63;;
58260;SDS011;44058;52.898;6.502;2022-11-20T04:14:34;13.40;;;12.20;;
58260;SDS011;44058;52.898;6.502;2022-11-20T04:17:00;15.60;;;14.00;;
58260;SDS011;44058;52.898;6.502;2022-11-20T04:19:26;10.57;;;8.33;;
58260;SDS011;44058;52.898;6.502;2022-11-20T04:21:51;11.93;;;8.53;;
58260;SDS011;44058;52.898;6.502;2022-11-20T04:24:17;12.57;;;8.93;;
58260;SDS011;44058;52.898;6.502;2022-11-20T04:26:43;12.43;;;9.13;;
58260;SDS011;44058;52.898;6.502;2022-11-20T04:29:10;15.57;;;14.07;;
58260;SDS011;44058;52.898;6.502;2022-11-20T04:31:36;12.50;;;9.13;;
58260;SDS011;44058;52.898;6.502;2022-11-20T04:34:03;12.10;;;8.90;;
58260;SDS011;44058;52.898;6.502;2022-11-20T04:36:30;11.00;;;8.70;;
58260;SDS011;44058;52.898;6.502;2022-11-20T04:38:58;13.60;;;9.67;;
58260;SDS011;44058;52.898;6.502;2022-11-20T04:41:27;14.43;;;12.93;;
58260;SDS011;44058;52.898;6.502;2022-11-20T04:43:56;15.88;;;14.35;;
58260;SDS011;44058;52.898;6.502;2022-11-20T04:46:32;12.70;;;9.33;;
58260;SDS011;44058;52.898;6.502;2022-11-20T04:49:00;14.80;;;13.40;;
58260;SDS011;44058;52.898;6.502;2022-11-20T04:51:26;12.97;;;9.03;;
58260;SDS011;44058;52.898;6.502;2022-11-20T04:53:52;13.93;;;9.87;;
58260;SDS011;44058;52.898;6.502;2022-11-20T04:56:19;12.40;;;9.03;;
58260;SDS011;44058;52.898;6.502;2022-11-20T04:58:45;15.00;;;13.70;;
58260;SDS011;44058;52.898;6.502;2022-11-20T05:01:12;13.40;;;9.60;;
58260;SDS011;44058;52.898;6.502;2022-11-20T05:03:40;16.13;;;14.48;;
58260;SDS011;44058;52.898;6.502;2022-11-20T05:06:06;11.47;;;9.30;;
58260;SDS011;44058;52.898;6.502;2022-11-20T05:08:33;15.13;;;13.73;;
58260;SDS011;44058;52.898;6.502;2022-11-20T05:11:02;15.37;;;13.87;;
58260;SDS011;44058;52.898;6.502;2022-11-20T05:13:29;14.90;;;9.27;;
58260;SDS011;44058;52.898;6.502;2022-11-20T05:16:00;13.90;;;9.53;;
58260;SDS011;44058;52.898;6.502;2022-11-20T05:18:34;16.10;;;14.50;;
58260;SDS011;44058;52.898;6.502;2022-11-20T05:21:01;15.47;;;10.17;;
58260;SDS011;44058;52.898;6.502;2022-11-20T05:23:28;16.67;;;15.07;;
58260;SDS011;44058;52.898;6.502;2022-11-20T05:25:55;14.60;;;9.77;;
58260;SDS011;44058;52.898;6.502;2022-11-20T05:28:21;15.20;;;13.63;;
58260;SDS011;44058;52.898;6.502;2022-11-20T05:30:48;13.83;;;9.83;;
58260;SDS011;44058;52.898;6.502;2022-11-20T05:33:14;13.63;;;9.70;;
58260;SDS011;44058;52.898;6.502;2022-11-20T05:35:40;14.17;;;12.87;;
58260;SDS011;44058;52.898;6.502;2022-11-20T05:38:06;11.77;;;8.50;;
58260;SDS011;44058;52.898;6.502;2022-11-20T05:40:32;14.07;;;9.30;;
58260;SDS011;44058;52.898;6.502;2022-11-20T05:42:59;14.23;;;9.17;;
58260;SDS011;44058;52.898;6.502;2022-11-20T05:45:24;15.53;;;14.03;;
58260;SDS011;44058;52.898;6.502;2022-11-20T05:47:50;14.87;;;13.43;;
58260;SDS011;44058;52.898;6.502;2022-11-20T05:50:16;12.70;;;9.00;;
58260;SDS011;44058;52.898;6.502;2022-11-20T05:52:42;14.73;;;13.43;;
58260;SDS011;44058;52.898;6.502;2022-11-20T05:55:07;13.07;;;9.77;;
58260;SDS011;44058;52.898;6.502;2022-11-20T05:57:34;14.60;;;9.20;;
58260;SDS011;44058;52.898;6.502;2022-11-20T06:00:00;12.97;;;9.60;;
58260;SDS011;44058;52.898;6.502;2022-11-20T06:02:26;12.70;;;9.00;;
58260;SDS011;44058;52.898;6.502;2022-11-20T06:04:52;14.97;;;13.60;;
58260;SDS011;44058;52.898;6.502;2022-11-20T06:07:17;12.87;;;9.33;;
58260;SDS011;44058;52.898;6.502;2022-11-20T06:09:43;14.00;;;12.70;;
58260;SDS011;44058;52.898;6.502;2022-11-20T06:12:09;11.90;;;9.10;;
58260;SDS011;44058;52.898;6.502;2022-11-20T06:14:35;12.53;;;9.17;;
58260;SDS011;44058;52.898;6.502;2022-11-20T06:17:00;14.03;;;12.67;;
58260;SDS011;44058;52.898;6.502;2022-11-20T06:19:26;12.73;;;9.20;;
58260;SDS011;44058;52.898;6.502;2022-11-20T06:21:52;14.23;;;12.83;;
58260;SDS011;44058;52.898;6.502;2022-11-20T06:24:17;14.87;;;13.43;;
58260;SDS011;44058;52.898;6.502;2022-11-20T06:26:43;15.70;;;14.23;;
58260;SDS011;44058;52.898;6.502;2022-11-20T06:29:09;14.37;;;12.97;;
58260;SDS011;44058;52.898;6.502;2022-11-20T06:31:35;12.47;;;9.20;;
58260;SDS011;44058;52.898;6.502;2022-11-20T06:34:05;12.23;;;8.63;;
58260;SDS011;44058;52.898;6.502;2022-11-20T06:36:32;14.57;;;13.13;;
58260;SDS011;44058;52.898;6.502;2022-11-20T06:38:58;12.63;;;9.33;;
58260;SDS011;44058;52.898;6.502;2022-11-20T06:41:25;14.63;;;13.23;;
58260;SDS011;44058;52.898;6.502;2022-11-20T06:43:51;12.20;;;9.13;;
58260;SDS011;44058;52.898;6.502;2022-11-20T06:46:17;14.10;;;12.70;;
58260;SDS011;44058;52.898;6.502;2022-11-20T06:48:44;13.83;;;12.63;;
58260;SDS011;44058;52.898;6.502;2022-11-20T06:51:11;11.60;;;8.60;;
58260;SDS011;44058;52.898;6.502;2022-11-20T06:53:37;13.67;;;9.30;;
58260;SDS011;44058;52.898;6.502;2022-11-20T06:56:03;13.50;;;12.20;;
58260;SDS011;44058;52.898;6.502;2022-11-20T06:58:30;13.30;;;8.93;;
58260;SDS011;44058;52.898;6.502;2022-11-20T07:00:58;13.53;;;9.23;;
58260;SDS011;44058;52.898;6.502;2022-11-20T07:03:24;14.33;;;13.03;;
58260;SDS011;44058;52.898;6.502;2022-11-20T07:05:50;14.20;;;9.30;;
58260;SDS011;44058;52.898;6.502;2022-11-20T07:08:15;12.53;;;8.90;;
58260;SDS011;44058;52.898;6.502;2022-11-20T07:10:41;13.70;;;9.40;;
58260;SDS011;44058;52.898;6.502;2022-11-20T07:13:07;13.37;;;9.33;;
58260;SDS011;44058;52.898;6.502;2022-11-20T07:15:33;11.80;;;8.47;;
58260;SDS011;44058;52.898;6.502;2022-11-20T07:17:59;12.33;;;8.80;;
58260;SDS011;44058;52.898;6.502;2022-11-20T07:20:25;13.27;;;9.47;;
58260;SDS011;44058;52.898;6.502;2022-11-20T07:22:54;10.93;;;8.30;;
58260;SDS011;44058;52.898;6.502;2022-11-20T07:25:21;13.10;;;11.83;;
58260;SDS011;44058;52.898;6.502;2022-11-20T07:27:48;11.60;;;9.60;;
58260;SDS011;44058;52.898;6.502;2022-11-20T07:30:14;11.30;;;7.90;;
58260;SDS011;44058;52.898;6.502;2022-11-20T07:32:40;14.33;;;12.73;;
58260;SDS011;44058;52.898;6.502;2022-11-20T07:35:06;13.50;;;12.20;;
58260;SDS011;44058;52.898;6.502;2022-11-20T07:37:36;11.90;;;8.63;;
58260;SDS011;44058;52.898;6.502;2022-11-20T07:40:02;13.40;;;11.93;;
58260;SDS011;44058;52.898;6.502;2022-11-20T07:42:28;11.40;;;8.53;;
58260;SDS011;44058;52.898;6.502;2022-11-20T07:44:54;12.90;;;8.43;;
58260;SDS011;44058;52.898;6.502;2022-11-20T07:47:20;13.67;;;12.37;;
58260;SDS011;44058;52.898;6.502;2022-11-20T07:49:46;11.87;;;8.93;;
58260;SDS011;44058;52.898;6.502;2022-11-20T07:52:11;12.90;;;11.60;;
58260;SDS011;44058;52.898;6.502;2022-11-20T07:54:37;12.53;;;8.30;;
58260;SDS011;44058;52.898;6.502;2022-11-20T07:57:03;15.83;;;14.33;;
58260;SDS011;44058;52.898;6.502;2022-11-20T07:59:30;18.77;;;16.77;;
58260;SDS011;44058;52.898;6.502;2022-11-20T08:01:56;17.53;;;15.67;;
58260;SDS011;44058;52.898;6.502;2022-11-20T08:04:22;16.13;;;14.63;;
58260;SDS011;44058;52.898;6.502;2022-11-20T08:06:48;14.03;;;12.73;;
58260;SDS011;44058;52.898;6.502;2022-11-20T08:09:14;14.10;;;12.80;;
58260;SDS011;44058;52.898;6.502;2022-11-20T08:11:40;14.40;;;12.90;;
58260;SDS011;44058;52.898;6.502;2022-11-20T08:14:25;12.13;;;9.10;;
58260;SDS011;44058;52.898;6.502;2022-11-20T08:16:52;13.10;;;8.70;;
58260;SDS011;44058;52.898;6.502;2022-11-20T08:19:18;13.33;;;8.33;;
58260;SDS011;44058;52.898;6.502;2022-11-20T08:21:44;10.70;;;8.27;;
58260;SDS011;44058;52.898;6.502;2022-11-20T08:24:11;11.87;;;8.27;;
58260;SDS011;44058;52.898;6.502;2022-11-20T08:26:37;10.43;;;8.47;;
58260;SDS011;44058;52.898;6.502;2022-11-20T08:29:04;10.00;;;7.97;;
58260;SDS011;44058;52.898;6.502;2022-11-20T08:31:30;12.50;;;11.30;;
58260;SDS011;44058;52.898;6.502;2022-11-20T08:33:56;14.57;;;9.43;;
58260;SDS011;44058;52.898;6.502;2022-11-20T08:36:23;9.97;;;7.80;;
58260;SDS011;44058;52.898;6.502;2022-11-20T08:38:50;11.17;;;8.10;;
58260;SDS011;44058;52.898;6.502;2022-11-20T08:41:18;14.30;;;12.40;;
58260;SDS011;44058;52.898;6.502;2022-11-20T08:43:54;11.37;;;8.30;;
58260;SDS011;44058;52.898;6.502;2022-11-20T08:46:22;12.57;;;11.27;;
58260;SDS011;44058;52.898;6.502;2022-11-20T08:48:48;12.30;;;11.10;;
58260;SDS011;44058;52.898;6.502;2022-11-20T08:51:14;12.23;;;10.93;;
58260;SDS011;44058;52.898;6.502;2022-11-20T08:53:40;12.93;;;11.63;;
58260;SDS011;44058;52.898;6.502;2022-11-20T08:56:06;12.33;;;11.20;;
58260;SDS011;44058;52.898;6.502;2022-11-20T08:58:32;13.17;;;11.83;;
58260;SDS011;44058;52.898;6.502;2022-11-20T09:00:59;12.67;;;8.60;;
58260;SDS011;44058;52.898;6.502;2022-11-20T09:03:24;11.93;;;10.83;;
58260;SDS011;44058;52.898;6.502;2022-11-20T09:05:56;10.03;;;7.60;;
58260;SDS011;44058;52.898;6.502;2022-11-20T09:08:26;12.03;;;7.80;;
58260;SDS011;44058;52.898;6.502;2022-11-20T09:10:53;9.30;;;7.23;;
58260;SDS011;44058;52.898;6.502;2022-11-20T09:13:20;10.53;;;8.47;;
58260;SDS011;44058;52.898;6.502;2022-11-20T09:15:46;12.37;;;8.57;;
58260;SDS011;44058;52.898;6.502;2022-11-20T09:18:12;9.70;;;7.63;;
58260;SDS011;44058;52.898;6.502;2022-11-20T09:20:38;11.30;;;10.30;;
58260;SDS011;44058;52.898;6.502;2022-11-20T09:23:04;16.17;;;14.43;;
58260;SDS011;44058;52.898;6.502;2022-11-20T09:25:30;12.00;;;10.80;;
58260;SDS011;44058;52.898;6.502;2022-11-20T09:27:56;10.77;;;7.77;;
58260;SDS011;44058;52.898;6.502;2022-11-20T09:30:23;11.40;;;8.10;;
58260;SDS011;44058;52.898;6.502;2022-11-20T09:32:49;10.90;;;8.17;;
58260;SDS011;44058;52.898;6.502;2022-11-20T09:35:15;10.83;;;9.73;;
58260;SDS011;44058;52.898;6.502;2022-11-20T09:37:43;10.27;;;7.00;;
58260;SDS011;44058;52.898;6.502;2022-11-20T09:40:17;11.50;;;10.33;;
58260;SDS011;44058;52.898;6.502;2022-11-20T09:42:57;10.40;;;9.40;;
58260;SDS011;44058;52.898;6.502;2022-11-20T09:56:40;10.53;;;7.13;;
58260;SDS011;44058;52.898;6.502;2022-11-20T09:59:15;9.97;;;9.07;;
58260;SDS011;44058;52.898;6.502;2022-11-20T10:04:47;9.23;;;6.93;;
58260;SDS011;44058;52.898;6.502;2022-11-20T10:07:23;8.67;;;6.77;;
58260;SDS011;44058;52.898;6.502;2022-11-20T10:09:57;11.47;;;10.43;;
58260;SDS011;44058;52.898;6.502;2022-11-20T10:12:33;11.87;;;8.47;;
58260;SDS011;44058;52.898;6.502;2022-11-20T10:20:50;12.27;;;9.93;;
58260;SDS011;44058;52.898;6.502;2022-11-20T10:26:37;9.77;;;8.87;;
58260;SDS011;44058;52.898;6.502;2022-11-20T10:29:13;7.82;;;6.90;;
58260;SDS011;44058;52.898;6.502;2022-11-20T10:31:43;9.95;;;7.53;;
58260;SDS011;44058;52.898;6.502;2022-11-20T10:36:55;10.03;;;9.13;;
58260;SDS011;44058;52.898;6.502;2022-11-20T10:39:35;10.90;;;9.90;;
58260;SDS011;44058;52.898;6.502;2022-11-20T10:42:31;9.80;;;8.13;;
58260;SDS011;44058;52.898;6.502;2022-11-20T10:47:49;10.85;;;9.85;;
58260;SDS011;44058;52.898;6.502;2022-11-20T10:50:18;9.30;;;8.50;;
58260;SDS011;44058;52.898;6.502;2022-11-20T10:55:50;9.98;;;7.10;;
58260;SDS011;44058;52.898;6.502;2022-11-20T10:58:29;8.95;;;8.05;;
58260;SDS011;44058;52.898;6.502;2022-11-20T11:01:20;7.97;;;7.05;;
58260;SDS011;44058;52.898;6.502;2022-11-20T11:03:52;7.28;;;6.50;;
58260;SDS011;44058;52.898;6.502;2022-11-20T11:06:29;6.55;;;5.95;;
58260;SDS011;44058;52.898;6.502;2022-11-20T11:08:56;7.07;;;6.38;;
58260;SDS011;44058;52.898;6.502;2022-11-20T11:11:28;7.35;;;6.63;;
58260;SDS011;44058;52.898;6.502;2022-11-20T11:14:05;7.63;;;6.82;;
58260;SDS011;44058;52.898;6.502;2022-11-20T11:16:40;7.32;;;6.72;;
58260;SDS011;44058;52.898;6.502;2022-11-20T11:19:16;7.10;;;5.82;;
58260;SDS011;44058;52.898;6.502;2022-11-20T11:21:52;8.20;;;6.32;;
58260;SDS011;44058;52.898;6.502;2022-11-20T11:26:51;7.80;;;7.10;;
58260;SDS011;44058;52.898;6.502;2022-11-20T11:29:21;8.32;;;7.53;;
58260;SDS011;44058;52.898;6.502;2022-11-20T11:31:47;9.35;;;6.97;;
58260;SDS011;44058;52.898;6.502;2022-11-20T11:34:14;8.27;;;7.57;;
58260;SDS011;44058;52.898;6.502;2022-11-20T11:36:42;8.70;;;7.80;;
58260;SDS011;44058;52.898;6.502;2022-11-20T11:39:19;8.38;;;7.57;;
58260;SDS011;44058;52.898;6.502;2022-11-20T11:41:46;8.13;;;7.30;;
58260;SDS011;44058;52.898;6.502;2022-11-20T11:44:20;8.48;;;7.68;;
58260;SDS011;44058;52.898;6.502;2022-11-20T11:47:22;7.63;;;6.95;;
58260;SDS011;44058;52.898;6.502;2022-11-20T12:01:33;6.55;;;5.95;;
58260;SDS011;44058;52.898;6.502;2022-11-20T12:06:48;8.00;;;7.30;;
58260;SDS011;44058;52.898;6.502;2022-11-20T12:09:27;7.53;;;6.85;;
58260;SDS011;44058;52.898;6.502;2022-11-20T12:12:10;7.75;;;7.10;;
58260;SDS011;44058;52.898;6.502;2022-11-20T12:14:45;7.22;;;6.63;;
58260;SDS011;44058;52.898;6.502;2022-11-20T12:17:15;7.05;;;6.45;;
58260;SDS011;44058;52.898;6.502;2022-11-20T12:19:41;6.22;;;5.72;;
58260;SDS011;44058;52.898;6.502;2022-11-20T12:27:49;6.28;;;5.70;;
58260;SDS011;44058;52.898;6.502;2022-11-20T12:30:34;6.35;;;5.63;;
58260;SDS011;44058;52.898;6.502;2022-11-20T12:33:14;6.40;;;5.80;;
58260;SDS011;44058;52.898;6.502;2022-11-20T12:36:04;6.20;;;5.60;;
58260;SDS011;44058;52.898;6.502;2022-11-20T12:39:05;7.07;;;6.40;;
58260;SDS011;44058;52.898;6.502;2022-11-20T12:41:59;6.45;;;5.90;;
58260;SDS011;44058;52.898;6.502;2022-11-20T12:48:13;7.00;;;6.40;;
58260;SDS011;44058;52.898;6.502;2022-11-20T12:56:24;6.65;;;6.05;;
58260;SDS011;44058;52.898;6.502;2022-11-20T13:07:10;8.95;;;8.15;;
